Burtonville, Kentucky
Current Conditions -  °F | °C
As of 12:35 PM on Thursday 30 Oct 2014 (Local Time) from KFGX Reporting Station
Overcast Overcast  
Wind Chill: 47°   Ceiling: 3500
Heat Index: 47°   Visibility: 10mi
Dew Point: 35°   Wind: 0mph
Humidity: 61%   Direction: NA
Pressure: 30.17"   Gusts: NA
Location:  38.5845°N, 83.5468°W
Report Text: KFGX 301635Z AUTO 00000KT 10SM OVC035 09/01 A3017 RMK AO2 T00850014
Loading
Personal Weather Stations






























Interactive Weather Map New forecast layout! Learn more

10-Day Weather Forecast

Advertisements
Track Severe Weather on mobile